Time;durP1;ratioP1;P1;durP2;ratioP2;P2;SDS_P1;SDS_P2;PMS_P1;PMS_P2;Temp;Humidity;BMP_temperature;BMP_pressure;BME280_temperature;BME280_humidity;BME280_pressure;Samples;Min_cycle;Max_cycle;Signal;HPM_P1;HPM_P2
2022/06/14 00:00:54;;;;;;;7.35;4.00;;;14.10;99.90;;;;;;5042762;28;20213;-84
2022/06/14 00:03:39;;;;;;;8.07;4.90;;;14.00;99.90;;;;;;5062784;28;20266;-83
2022/06/14 00:06:17;;;;;;;6.20;3.72;;;14.00;99.90;;;;;;5065904;28;20299;-84
2022/06/14 00:08:43;;;;;;;9.30;4.28;;;14.00;99.90;;;;;;5045683;28;20208;-83
2022/06/14 00:11:15;;;;;;;6.87;5.53;;;14.10;99.90;;;;;;5068854;28;20176;-84
2022/06/14 00:13:41;;;;;;;9.47;4.20;;;14.00;99.90;;;;;;5065247;28;20441;-84
2022/06/14 00:16:07;;;;;;;6.80;3.97;;;;;;;;;;5059514;28;20435;-82
2022/06/14 00:18:33;;;;;;;17.80;3.90;;;;;;;;;;5052212;28;20217;-82
2022/06/14 00:20:59;;;;;;;9.70;4.53;;;13.80;99.90;;;;;;5069111;28;20415;-84
2022/06/14 00:23:25;;;;;;;8.53;4.83;;;;;;;;;;5077588;28;21021;-83
2022/06/14 00:25:53;;;;;;;6.90;3.40;;;13.80;99.90;;;;;;5059742;28;20188;-85
2022/06/14 00:28:20;;;;;;;8.70;4.28;;;13.80;99.90;;;;;;5068194;28;20462;-84
2022/06/14 00:30:50;;;;;;;8.03;4.47;;;13.70;99.90;;;;;;5045376;28;20197;-84
2022/06/14 00:33:16;;;;;;;10.13;5.25;;;;;;;;;;5065303;28;20423;-84
2022/06/14 00:35:42;;;;;;;7.00;3.90;;;13.70;99.90;;;;;;5046739;28;20173;-85
2022/06/14 00:38:10;;;;;;;9.80;4.30;;;13.60;99.90;;;;;;5074876;28;20500;-84
2022/06/14 00:40:37;;;;;;;9.30;4.30;;;13.60;99.90;;;;;;5072763;28;20259;-85
2022/06/14 00:43:11;;;;;;;11.60;3.88;;;13.60;99.90;;;;;;5069795;28;20394;-85
2022/06/14 00:45:37;;;;;;;9.88;4.80;;;;;;;;;;5067183;28;20194;-84
2022/06/14 00:48:08;;;;;;;5.07;4.30;;;13.30;99.90;;;;;;5046540;28;20225;-83
2022/06/14 00:50:52;;;;;;;10.93;4.95;;;13.30;99.90;;;;;;5060372;28;20562;-85
2022/06/14 00:53:24;;;;;;;11.57;4.90;;;13.30;99.90;;;;;;5074674;28;20233;-84
2022/06/14 00:55:57;;;;;;;7.88;4.43;;;13.10;99.90;;;;;;5071796;28;20567;-84
2022/06/14 00:58:28;;;;;;;9.98;4.78;;;13.00;99.90;;;;;;5069741;28;20204;-84
2022/06/14 01:01:04;;;;;;;9.55;4.82;;;13.60;99.90;;;;;;5066045;28;20541;-84
2022/06/14 01:03:39;;;;;;;7.70;3.95;;;12.80;99.90;;;;;;5043095;28;20192;-83
2022/06/14 01:06:27;;;;;;;9.15;4.22;;;12.70;99.90;;;;;;5039386;28;20735;-85
2022/06/14 01:08:59;;;;;;;5.45;3.10;;;12.70;99.90;;;;;;5070089;28;20172;-84
2022/06/14 01:11:30;;;;;;;4.80;3.50;;;12.70;99.90;;;;;;5071642;28;20771;-84
2022/06/14 01:13:56;;;;;;;8.35;4.07;;;12.70;99.90;;;;;;5069105;28;20248;-84
2022/06/14 01:16:21;;;;;;;6.70;3.53;;;12.60;99.90;;;;;;5055325;28;20312;-84
2022/06/14 01:18:47;;;;;;;6.53;4.00;;;12.50;99.90;;;;;;5063033;22;20225;-86
2022/06/14 01:21:15;;;;;;;9.93;4.05;;;12.50;99.90;;;;;;5041463;28;20177;-86
2022/06/14 01:23:40;;;;;;;7.55;3.83;;;12.50;99.90;;;;;;5029853;28;20193;-85
2022/06/14 01:26:14;;;;;;;3.93;3.00;;;12.40;99.90;;;;;;5023482;28;20191;-86
2022/06/14 01:28:44;;;;;;;8.90;3.53;;;12.40;99.90;;;;;;5026090;28;20297;-87
2022/06/14 01:31:10;;;;;;;6.85;3.60;;;;;;;;;;5037864;28;20186;-82
2022/06/14 01:33:43;;;;;;;9.68;4.55;;;12.50;99.90;;;;;;5035352;28;20196;-86
2022/06/14 01:36:42;;;;;;;7.38;3.67;;;12.20;99.90;;;;;;5025352;28;20272;-83
2022/06/14 01:39:15;;;;;;;8.13;3.35;;;12.10;99.90;;;;;;5018453;28;20221;-82
2022/06/14 01:42:12;;;;;;;5.38;3.00;;;12.10;99.90;;;;;;5022580;28;20189;-85
2022/06/14 01:44:59;;;;;;;6.20;3.42;;;12.10;99.90;;;;;;5037870;28;20638;-80
2022/06/14 01:47:37;;;;;;;5.82;3.28;;;12.10;99.90;;;;;;5018461;28;20234;-83
2022/06/14 01:53:09;;;;;;;12.38;4.07;;;12.10;99.90;;;;;;5034152;28;20547;-83
2022/06/14 01:55:41;;;;;;;6.20;3.15;;;12.10;99.90;;;;;;5028651;28;20173;-82
2022/06/14 01:58:22;;;;;;;4.78;3.53;;;12.00;99.90;;;;;;5020919;28;20712;-83
2022/06/14 02:01:06;;;;;;;5.68;3.75;;;10.60;99.90;;;;;;5038456;28;20183;-84
2022/06/14 02:06:44;;;;;;;10.13;3.42;;;11.80;99.90;;;;;;5035751;28;20602;-84
2022/06/14 02:09:20;;;;;;;8.40;2.83;;;11.80;99.90;;;;;;5031430;28;20240;-83
2022/06/14 02:11:46;;;;;;;5.85;3.30;;;11.70;99.90;;;;;;5019557;28;20181;-84
2022/06/14 02:14:30;;;;;;;7.93;3.23;;;11.60;99.90;;;;;;5021116;28;20173;-82
2022/06/14 02:17:11;;;;;;;7.13;3.80;;;11.60;99.90;;;;;;5020315;28;20415;-82
2022/06/14 02:19:47;;;;;;;4.47;3.28;;;11.50;99.90;;;;;;5035068;28;20638;-83
2022/06/14 02:22:25;;;;;;;8.00;2.97;;;11.50;99.90;;;;;;5016270;28;20180;-84
2022/06/14 02:24:59;;;;;;;8.27;2.97;;;11.50;99.90;;;;;;5025323;28;20216;-81
2022/06/14 02:27:31;;;;;;;7.70;3.55;;;11.50;99.90;;;;;;5026705;28;20257;-85
2022/06/14 02:30:19;;;;;;;6.38;3.25;;;11.40;99.90;;;;;;5038530;28;20202;-84
2022/06/14 02:32:59;;;;;;;9.95;3.92;;;11.40;99.90;;;;;;5036788;28;20184;-83
2022/06/14 02:35:33;;;;;;;4.80;3.47;;;11.30;99.90;;;;;;5034726;28;20231;-83
2022/06/14 02:38:08;;;;;;;6.57;3.63;;;11.30;99.90;;;;;;5033193;28;20211;-81
2022/06/14 02:40:42;;;;;;;10.15;3.90;;;11.20;99.90;;;;;;5034651;28;20212;-82
2022/06/14 02:43:21;;;;;;;5.05;2.95;;;11.30;99.90;;;;;;5035096;28;20216;-86
2022/06/14 02:46:02;;;;;;;5.18;2.97;;;11.20;99.90;;;;;;5018659;28;20188;-83
2022/06/14 02:48:37;;;;;;;5.25;2.92;;;11.20;99.90;;;;;;5035022;28;20204;-85
2022/06/14 02:51:13;;;;;;;9.07;3.17;;;11.10;99.90;;;;;;5024616;28;20234;-82
2022/06/14 02:53:52;;;;;;;7.28;4.03;;;11.10;99.90;;;;;;5014815;28;20181;-85
2022/06/14 02:56:42;;;;;;;8.93;4.03;;;11.10;99.90;;;;;;5031506;28;20181;-84
2022/06/14 02:59:15;;;;;;;5.45;3.65;;;11.10;99.90;;;;;;5036521;28;20213;-85
2022/06/14 03:02:04;;;;;;;3.78;3.40;;;11.10;99.90;;;;;;5036794;28;20647;-80
2022/06/14 03:04:38;;;;;;;5.63;3.20;;;11.10;99.90;;;;;;5023324;28;20610;-82
2022/06/14 03:07:25;;;;;;;8.27;4.15;;;11.10;99.90;;;;;;5029116;28;20733;-83
2022/06/14 03:09:51;;;;;;;7.25;3.45;;;;;;;;;;5026586;28;20201;-82
2022/06/14 03:12:51;;;;;;;8.93;4.25;;;11.10;99.90;;;;;;5032951;28;20186;-85
2022/06/14 03:16:00;;;;;;;6.28;4.45;;;11.10;99.90;;;;;;5031111;28;20256;-85
2022/06/14 03:18:53;;;;;;;6.82;4.32;;;11.10;99.90;;;;;;5031527;28;20258;-83
2022/06/14 03:21:30;;;;;;;7.90;3.70;;;11.00;99.90;;;;;;5038933;28;20260;-83
2022/06/14 03:24:11;;;;;;;17.45;4.70;;;11.00;99.90;;;;;;5029578;28;20193;-83
2022/06/14 03:26:58;;;;;;;7.97;3.92;;;11.00;99.90;;;;;;5023535;28;20178;-81
2022/06/14 03:29:36;;;;;;;10.50;3.78;;;11.00;99.90;;;;;;5037257;28;20212;-82
2022/06/14 03:32:12;;;;;;;10.18;4.00;;;11.10;99.90;;;;;;5031348;28;20541;-84
2022/06/14 03:34:45;;;;;;;5.45;4.35;;;11.10;99.90;;;;;;5024263;28;20594;-84
2022/06/14 03:37:13;;;;;;;5.80;3.45;;;11.20;99.90;;;;;;5025199;28;20190;-82
2022/06/14 03:39:44;;;;;;;5.25;4.00;;;11.20;99.90;;;;;;5038846;28;20198;-84
2022/06/14 03:42:11;;;;;;;8.60;4.68;;;15.20;99.90;;;;;;5036881;28;20630;-84
2022/06/14 03:44:38;;;;;;;10.32;4.05;;;11.20;99.90;;;;;;5031783;28;20213;-82
2022/06/14 03:47:09;;;;;;;7.60;4.05;;;11.20;99.90;;;;;;5020978;28;20192;-84
2022/06/14 03:49:40;;;;;;;9.90;4.47;;;11.30;99.90;;;;;;5022706;28;20251;-83
2022/06/14 03:52:32;;;;;;;9.52;4.18;;;11.30;99.90;;;;;;5038946;28;20533;-84
2022/06/14 03:55:25;;;;;;;7.85;4.60;;;11.40;99.90;;;;;;5024145;28;20190;-85
2022/06/14 03:58:26;;;;;;;5.10;4.50;;;11.50;99.90;;;;;;5034927;28;20189;-82
2022/06/14 04:00:58;;;;;;;5.40;3.80;;;11.80;99.90;;;;;;5041070;28;20880;-87
2022/06/14 04:03:29;;;;;;;5.55;3.88;;;11.80;99.90;;;;;;5041054;28;20657;-82
2022/06/14 04:06:10;;;;;;;9.50;3.72;;;11.90;99.90;;;;;;5020917;28;20196;-82
2022/06/14 04:08:58;;;;;;;6.93;3.97;;;11.90;99.90;;;;;;5038157;28;20209;-81
2022/06/14 04:12:02;;;;;;;4.35;3.65;;;12.00;99.90;;;;;;5036296;28;20209;-82
2022/06/14 04:14:50;;;;;;;3.90;3.00;;;12.20;99.90;;;;;;4959564;28;20200;-85
2022/06/14 04:17:28;;;;;;;6.07;4.22;;;14.40;99.90;;;;;;5028917;28;20412;-84
2022/06/14 04:19:57;;;;;;;7.25;3.55;;;14.60;99.90;;;;;;5021567;28;20201;-83
2022/06/14 04:22:41;;;;;;;4.53;3.97;;;15.90;99.90;;;;;;5022476;28;20177;-84
2022/06/14 04:25:25;;;;;;;3.50;2.67;;;17.00;99.90;;;;;;5029005;28;20224;-83
2022/06/14 04:28:23;;;;;;;3.57;2.93;;;19.60;99.90;;;;;;5035985;28;20201;-85
2022/06/14 04:31:19;;;;;;;7.70;2.87;;;19.80;99.90;;;;;;5036596;28;20467;-84
2022/06/14 04:34:11;;;;;;;14.47;3.93;;;22.10;99.90;;;;;;5023334;28;20434;-83
2022/06/14 04:36:55;;;;;;;3.10;2.73;;;25.70;99.90;;;;;;5036201;28;20429;-83
2022/06/14 04:39:30;;;;;;;6.40;3.00;;;27.40;99.80;;;;;;5029258;28;20431;-84
2022/06/14 04:42:02;;;;;;;8.20;3.23;;;28.00;91.40;;;;;;5027818;28;20462;-83
2022/06/14 04:44:58;;;;;;;5.30;3.63;;;28.50;91.00;;;;;;5029229;28;20420;-83
2022/06/14 04:47:31;;;;;;;6.20;3.10;;;29.10;79.70;;;;;;5024744;28;20786;-81
2022/06/14 04:50:24;;;;;;;8.53;3.30;;;29.80;90.40;;;;;;5039790;28;20461;-83
2022/06/14 04:52:55;;;;;;;4.40;3.10;;;31.40;73.20;;;;;;5022911;28;20520;-82
2022/06/14 04:55:27;;;;;;;5.67;3.27;;;32.70;66.50;;;;;;5029406;28;20434;-83
2022/06/14 04:58:19;;;;;;;4.03;2.60;;;34.00;77.50;;;;;;5034735;28;20430;-81
2022/06/14 05:00:53;;;;;;;7.13;3.70;;;35.40;55.50;;;;;;5035745;28;20436;-84
2022/06/14 05:03:26;;;;;;;6.13;3.30;;;36.40;51.30;;;;;;5024033;28;20448;-82
2022/06/14 05:06:00;;;;;;;7.00;4.10;;;37.30;48.70;;;;;;5041251;28;21016;-81
2022/06/14 05:08:55;;;;;;;6.53;5.20;;;38.20;45.70;;;;;;5030003;28;20437;-83
2022/06/14 05:11:39;;;;;;;13.43;7.37;;;38.90;41.10;;;;;;4997838;28;20428;-81
2022/06/14 05:14:12;;;;;;;8.93;8.33;;;38.80;38.20;;;;;;5034638;28;20825;-85
2022/06/14 05:16:44;;;;;;;12.47;11.10;;;38.70;36.70;;;;;;5033278;28;20412;-84
2022/06/14 05:19:23;;;;;;;15.27;10.80;;;39.10;50.40;;;;;;5041488;28;20451;-86
2022/06/14 05:22:08;;;;;;;12.60;11.40;;;39.50;50.50;;;;;;5039930;28;20469;-84
2022/06/14 05:24:34;;;;;;;12.87;11.97;;;;;;;;;;5027550;28;20433;-86
2022/06/14 05:27:34;;;;;;;14.20;13.17;;;39.60;49.50;;;;;;5028729;28;20437;-86
2022/06/14 05:30:27;;;;;;;13.93;12.87;;;40.00;32.40;;;;;;5031067;28;20479;-86
2022/06/14 05:33:12;;;;;;;13.40;12.53;;;40.80;48.70;;;;;;4992912;28;20429;-84
2022/06/14 05:35:38;;;;;;;14.10;13.00;;;;;;;;;;5022023;28;20457;-86
2022/06/14 05:38:35;;;;;;;14.93;13.77;;;42.00;46.50;;;;;;5039304;28;20454;-85
2022/06/14 05:41:10;;;;;;;14.73;13.90;;;42.40;28.80;;;;;;5036652;28;20444;-83
2022/06/14 05:43:45;;;;;;;14.77;13.83;;;41.20;28.60;;;;;;5021188;28;20430;-83
2022/06/14 05:46:13;;;;;;;14.20;13.30;;;40.00;29.00;;;;;;5017694;28;21063;-84
2022/06/14 05:48:51;;;;;;;14.83;13.50;;;39.00;30.30;;;;;;5027608;28;20458;-81
2022/06/14 05:51:21;;;;;;;13.37;12.40;;;38.70;30.90;;;;;;5023366;28;20426;-81
2022/06/14 05:53:58;;;;;;;14.33;13.17;;;38.40;33.50;;;;;;5019586;28;20426;-84
2022/06/14 05:56:47;;;;;;;13.40;12.60;;;38.50;40.40;;;;;;5036470;28;20420;-83
2022/06/14 05:59:34;;;;;;;14.27;13.07;;;38.10;38.40;;;;;;5035310;28;20442;-83
2022/06/14 06:02:21;;;;;;;15.30;13.40;;;38.00;40.70;;;;;;5033077;28;20433;-84
2022/06/14 06:05:01;;;;;;;14.27;12.30;;;38.10;38.70;;;;;;5033024;28;20778;-77
2022/06/14 06:07:38;;;;;;;12.83;11.77;;;38.10;32.80;;;;;;5039466;28;20453;-81
2022/06/14 06:10:29;;;;;;;12.73;11.83;;;38.50;31.80;;;;;;5022486;28;20474;-83
2022/06/14 06:13:08;;;;;;;13.70;12.60;;;38.60;31.10;;;;;;5033690;28;20436;-84
2022/06/14 06:15:55;;;;;;;12.27;11.47;;;39.50;31.30;;;;;;5033445;28;20433;-83
2022/06/14 06:18:43;;;;;;;14.10;13.10;;;40.10;46.10;;;;;;5026636;28;20471;-84
2022/06/14 06:21:17;;;;;;;13.77;12.83;;;41.60;30.40;;;;;;5019803;28;20434;-84
2022/06/14 06:23:58;;;;;;;13.67;12.77;;;42.60;36.60;;;;;;5027465;28;20552;-82
2022/06/14 06:26:28;;;;;;;15.80;14.60;;;43.50;28.60;;;;;;5037226;28;20408;-81
2022/06/14 06:29:08;;;;;;;17.50;16.50;;;42.60;27.60;;;;;;5036576;28;20776;-82
2022/06/14 06:31:37;;;;;;;15.33;14.13;;;40.80;29.10;;;;;;5038262;28;20454;-84
2022/06/14 06:34:06;;;;;;;16.63;15.43;;;39.80;28.90;;;;;;5033621;28;20426;-84
2022/06/14 06:36:56;;;;;;;15.97;14.70;;;37.90;30.30;;;;;;5039966;28;20432;-82
2022/06/14 06:39:34;;;;;;;14.63;13.57;;;38.60;31.80;;;;;;5019848;28;20446;-86
2022/06/14 06:42:17;;;;;;;14.67;13.73;;;40.10;38.50;;;;;;5027196;28;20526;-83
2022/06/14 06:45:17;;;;;;;14.37;13.37;;;38.80;39.90;;;;;;5027344;28;20442;-84
2022/06/14 06:47:59;;;;;;;15.07;13.53;;;37.60;39.20;;;;;;5014741;28;20481;-83
2022/06/14 06:50:28;;;;;;;15.10;13.67;;;37.30;32.70;;;;;;5035171;28;21082;-82
2022/06/14 06:53:12;;;;;;;14.93;13.60;;;38.30;39.70;;;;;;5039874;28;20521;-84
2022/06/14 06:56:07;;;;;;;14.10;13.00;;;39.70;46.90;;;;;;5041799;28;20454;-86
2022/06/14 06:58:53;;;;;;;14.07;13.00;;;39.70;31.30;;;;;;5029117;28;20450;-81
2022/06/14 07:01:37;;;;;;;15.07;13.80;;;38.80;47.00;;;;;;5037936;28;20790;-86
2022/06/14 07:04:18;;;;;;;14.30;13.20;;;38.00;41.50;;;;;;5036453;28;20911;-82
2022/06/14 07:06:56;;;;;;;15.47;14.20;;;38.20;42.60;;;;;;5042261;28;20495;-84
2022/06/14 07:09:41;;;;;;;15.63;14.20;;;37.00;34.50;;;;;;5040671;28;20459;-84
2022/06/14 07:12:15;;;;;;;15.37;14.13;;;37.20;33.30;;;;;;5040895;28;20426;-83
2022/06/14 07:14:57;;;;;;;15.50;14.37;;;38.00;47.80;;;;;;5025268;28;20478;-83
2022/06/14 07:17:37;;;;;;;15.33;14.23;;;39.20;32.00;;;;;;5037719;28;20414;-82
2022/06/14 07:20:49;;;;;;;14.77;13.57;;;39.30;32.20;;;;;;5035444;28;20929;-80
2022/06/14 07:23:45;;;;;;;15.07;13.80;;;39.60;47.10;;;;;;4999407;28;20415;-85
2022/06/14 07:26:28;;;;;;;16.97;15.30;;;39.20;31.40;;;;;;5040753;28;20412;-83
2022/06/14 07:29:18;;;;;;;17.33;14.70;;;39.30;32.60;;;;;;5039209;28;20455;-85
2022/06/14 07:31:57;;;;;;;15.80;14.50;;;39.30;32.40;;;;;;5021159;28;20427;-81
2022/06/14 07:34:23;;;;;;;16.93;15.47;;;;;;;;;;5030843;28;20855;-85
2022/06/14 07:36:49;;;;;;;17.60;16.20;;;;;;;;;;5030348;28;20469;-81
2022/06/14 07:39:28;;;;;;;16.80;15.40;;;39.20;34.70;;;;;;5040982;28;20499;-84
2022/06/14 07:42:02;;;;;;;15.43;14.27;;;40.30;47.70;;;;;;5041684;28;20173;-84
2022/06/14 07:44:27;;;;;;;16.23;15.00;;;;;;;;;;5039792;28;20998;-84
2022/06/14 07:47:07;;;;;;;17.10;15.30;;;37.00;32.70;;;;;;5036143;28;20435;-84
2022/06/14 07:49:46;;;;;;;18.53;15.13;;;37.70;33.40;;;;;;5035245;28;20212;-80
2022/06/14 07:52:26;;;;;;;17.30;15.80;;;36.90;32.50;;;;;;5036841;28;20518;-78
2022/06/14 07:54:58;;;;;;;15.30;13.90;;;36.30;47.80;;;;;;5040972;28;20787;-82
2022/06/14 07:57:34;;;;;;;15.60;14.53;;;36.40;35.20;;;;;;5038979;28;20476;-78
2022/06/14 08:03:32;;;;;;;15.13;14.13;;;39.60;31.30;;;;;;5036556;28;20459;-83
2022/06/14 08:06:01;;;;;;;18.00;16.40;;;40.80;30.20;;;;;;5034087;28;20442;-82
2022/06/14 08:08:31;;;;;;;16.97;15.60;;;41.10;43.20;;;;;;5039668;28;20463;-81
2022/06/14 08:11:04;;;;;;;16.83;15.27;;;41.80;45.20;;;;;;5041720;28;20565;-81
2022/06/14 08:13:43;;;;;;;17.10;15.83;;;40.40;35.90;;;;;;5039422;28;20415;-82
2022/06/14 08:16:10;;;;;;;20.03;15.40;;;40.00;29.90;;;;;;5019583;28;20527;-82
2022/06/14 08:18:43;;;;;;;18.50;16.60;;;39.90;29.90;;;;;;5036251;28;20482;-83
2022/06/14 08:21:18;;;;;;;17.53;16.00;;;39.50;29.70;;;;;;5036867;28;20420;-86
2022/06/14 08:24:03;;;;;;;17.57;16.10;;;40.40;29.70;;;;;;5040490;28;20450;-83
2022/06/14 08:26:50;;;;;;;17.47;16.03;;;40.70;40.60;;;;;;5042272;28;20415;-86
2022/06/14 08:29:25;;;;;;;16.97;15.57;;;40.30;38.20;;;;;;5020326;28;20467;-82
2022/06/14 08:31:51;;;;;;;18.33;16.63;;;;;;;;;;5037686;28;20475;-86
2022/06/14 08:34:30;;;;;;;17.60;16.30;;;39.20;40.50;;;;;;5036420;28;20519;-82
2022/06/14 08:37:12;;;;;;;16.70;15.43;;;39.20;29.60;;;;;;5035482;28;20432;-84
2022/06/14 08:39:43;;;;;;;16.07;14.77;;;39.70;29.50;;;;;;5042844;28;20426;-83
2022/06/14 08:42:15;;;;;;;15.83;14.63;;;40.50;30.10;;;;;;5040470;28;20423;-82
2022/06/14 08:44:51;;;;;;;15.90;14.70;;;41.50;29.50;;;;;;5023755;28;20431;-84
2022/06/14 08:47:40;;;;;;;19.70;18.30;;;42.30;32.00;;;;;;5037126;28;20426;-84
2022/06/14 08:50:46;;;;;;;17.00;15.80;;;42.40;26.40;;;;;;5021914;28;20523;-84
2022/06/14 08:53:12;;;;;;;17.57;16.30;;;;;;;;;;5033021;28;20423;-81
2022/06/14 08:55:58;;;;;;;16.10;14.97;;;40.90;44.60;;;;;;5040966;28;20434;-82
2022/06/14 08:59:03;;;;;;;18.77;17.33;;;41.10;41.00;;;;;;5040176;28;20193;-84
2022/06/14 09:01:38;;;;;;;17.37;16.17;;;40.00;28.30;;;;;;5031944;28;20426;-82
2022/06/14 09:04:04;;;;;;;17.23;15.87;;;;;;;;;;5036538;28;20669;-81
2022/06/14 09:06:59;;;;;;;16.07;15.10;;;37.10;38.40;;;;;;5026862;28;20438;-83
2022/06/14 09:09:26;;;;;;;16.50;15.33;;;;;;;;;;5040654;28;20464;-84
2022/06/14 09:12:18;;;;;;;16.23;15.13;;;38.10;29.50;;;;;;5039342;28;20432;-83
2022/06/14 09:15:06;;;;;;;19.27;18.10;;;37.80;28.80;;;;;;5040276;28;20428;-81
2022/06/14 09:17:57;;;;;;;16.80;15.27;;;37.10;33.30;;;;;;5038225;28;20982;-83
2022/06/14 09:20:48;;;;;;;16.87;15.60;;;37.50;42.30;;;;;;5037161;28;20912;-80
2022/06/14 09:23:16;;;;;;;17.90;16.70;;;;;;;;;;5038291;28;20525;-84
2022/06/14 09:25:42;;;;;;;17.63;16.33;;;;;;;;;;5040906;28;20962;-82
2022/06/14 09:28:36;;;;;;;18.63;16.87;;;38.20;30.50;;;;;;5038399;28;20451;-81
2022/06/14 09:31:23;;;;;;;19.17;17.97;;;37.20;30.90;;;;;;5009724;28;20311;-81
2022/06/14 09:34:36;;;;;;;18.70;17.60;;;37.30;29.30;;;;;;5036038;28;20442;-83
2022/06/14 09:37:02;;;;;;;17.73;16.23;;;;;;;;;;5034972;28;20425;-83
2022/06/14 09:39:49;;;;;;;17.07;15.80;;;36.40;41.00;;;;;;5037108;28;20956;-84
2022/06/14 09:42:46;;;;;;;16.03;15.00;;;36.60;35.60;;;;;;5038322;28;20418;-79
2022/06/14 09:45:50;;;;;;;16.67;15.37;;;37.20;30.10;;;;;;5038287;28;20507;-81
2022/06/14 09:48:52;;;;;;;16.60;15.20;;;35.90;44.90;;;;;;5034281;28;20446;-83
2022/06/14 09:51:23;;;;;;;17.73;16.43;;;37.10;30.40;;;;;;5024414;28;20468;-83
2022/06/14 09:54:17;;;;;;;18.57;17.37;;;37.50;29.80;;;;;;5027367;28;20440;-81
2022/06/14 09:57:28;;;;;;;19.57;17.63;;;38.10;30.00;;;;;;5019067;28;20523;-84
2022/06/14 10:00:24;;;;;;;15.80;14.70;;;37.10;31.10;;;;;;5034342;28;20930;-82
2022/06/14 10:03:21;;;;;;;16.50;15.50;;;34.70;32.40;;;;;;5033224;28;20441;-82
2022/06/14 10:06:08;;;;;;;15.37;13.97;;;34.20;32.90;;;;;;5032325;28;20480;-82
2022/06/14 10:09:04;;;;;;;14.57;13.37;;;33.70;35.90;;;;;;5031952;28;20464;-83
2022/06/14 10:11:41;;;;;;;13.70;12.73;;;34.10;36.30;;;;;;5038353;28;20425;-81
2022/06/14 10:14:22;;;;;;;13.73;12.63;;;33.40;34.60;;;;;;5028699;28;20472;-84
2022/06/14 10:17:25;;;;;;;13.97;12.60;;;33.90;36.30;;;;;;5037335;28;20952;-81
2022/06/14 10:20:25;;;;;;;13.50;11.57;;;32.40;40.20;;;;;;5034275;28;20464;-83
2022/06/14 10:23:17;;;;;;;12.47;11.67;;;33.60;40.30;;;;;;5033962;28;20458;-83
2022/06/14 10:29:02;;;;;;;13.83;12.50;;;32.70;34.20;;;;;;5039083;28;20520;-82
2022/06/14 10:31:46;;;;;;;13.17;11.97;;;32.80;35.40;;;;;;5028480;28;20418;-81
2022/06/14 10:34:19;;;;;;;13.33;11.93;;;32.80;36.20;;;;;;5027697;28;20448;-82
2022/06/14 10:37:22;;;;;;;11.30;10.37;;;32.60;35.50;;;;;;5036533;28;20406;-82
2022/06/14 10:40:17;;;;;;;9.93;9.10;;;32.10;36.50;;;;;;5031350;28;20426;-81
2022/06/14 10:43:04;;;;;;;8.90;8.00;;;28.20;40.90;;;;;;5028635;28;20806;-82
2022/06/14 10:45:45;;;;;;;9.47;7.77;;;28.10;41.30;;;;;;5039801;28;20447;-82
2022/06/14 10:48:39;;;;;;;11.50;7.13;;;26.80;43.30;;;;;;5018068;28;20453;-83
2022/06/14 10:51:10;;;;;;;11.57;6.67;;;25.40;44.10;;;;;;5036113;28;20469;-82
2022/06/14 10:53:42;;;;;;;6.73;5.87;;;25.40;45.00;;;;;;5025721;28;21028;-82
2022/06/14 10:56:23;;;;;;;8.73;6.47;;;25.30;46.40;;;;;;5021328;28;20416;-83
2022/06/14 10:59:00;;;;;;;9.87;6.73;;;25.40;45.50;;;;;;5037129;28;20459;-83
2022/06/14 11:02:01;;;;;;;7.93;6.30;;;25.30;46.10;;;;;;5038634;28;20439;-83
2022/06/14 11:04:30;;;;;;;12.53;6.57;;;25.40;45.30;;;;;;5036121;28;20441;-83
2022/06/14 11:07:14;;;;;;;6.20;5.67;;;25.30;45.50;;;;;;5033498;28;20472;-83
2022/06/14 11:10:04;;;;;;;8.47;6.00;;;25.60;44.70;;;;;;5016937;28;20900;-86
2022/06/14 11:12:45;;;;;;;6.53;5.53;;;25.60;44.80;;;;;;5035883;28;20473;-84
2022/06/14 11:15:34;;;;;;;8.00;5.87;;;25.80;47.20;;;;;;5038745;28;20443;-82
2022/06/14 11:18:11;;;;;;;8.60;5.43;;;25.60;46.90;;;;;;5026062;28;20471;-83
2022/06/14 11:20:58;;;;;;;5.27;4.83;;;25.70;45.60;;;;;;5034570;28;20809;-82
2022/06/14 11:23:54;;;;;;;7.27;4.80;;;25.70;45.60;;;;;;5034233;28;20432;-80
2022/06/14 11:26:34;;;;;;;7.40;5.40;;;25.70;43.50;;;;;;5032793;28;20436;-85
2022/06/14 11:29:07;;;;;;;13.47;5.43;;;25.50;44.30;;;;;;5027164;28;20440;-83
2022/06/14 11:31:36;;;;;;;8.10;5.57;;;25.40;45.20;;;;;;5039604;28;20713;-83
2022/06/14 11:34:31;;;;;;;6.70;6.10;;;25.40;44.50;;;;;;5036487;28;20431;-81
2022/06/14 11:37:18;;;;;;;7.33;4.60;;;25.40;46.60;;;;;;5040584;28;20405;-83
2022/06/14 11:40:10;;;;;;;13.70;5.70;;;25.70;44.80;;;;;;5038230;28;20479;-84
2022/06/14 11:43:12;;;;;;;6.87;5.20;;;25.70;44.30;;;;;;5019492;28;20682;-85
2022/06/14 11:45:49;;;;;;;7.77;4.80;;;25.60;43.90;;;;;;5021180;28;20823;-81
2022/06/14 11:48:20;;;;;;;5.00;4.50;;;25.40;43.90;;;;;;5038292;28;20435;-82
2022/06/14 11:50:51;;;;;;;6.70;4.90;;;25.70;46.20;;;;;;5024258;28;21036;-83
2022/06/14 11:53:31;;;;;;;5.13;4.63;;;25.60;46.90;;;;;;5039631;28;20425;-83
2022/06/14 11:56:17;;;;;;;8.83;5.67;;;25.60;47.10;;;;;;5038782;28;20417;-83
2022/06/14 11:58:58;;;;;;;10.57;5.60;;;25.90;47.30;;;;;;5037248;28;20461;-84
2022/06/14 12:01:52;;;;;;;11.00;5.90;;;26.10;48.00;;;;;;5039325;28;20454;-82
2022/06/14 12:04:26;;;;;;;7.50;5.37;;;26.10;45.90;;;;;;5040087;28;20449;-84
2022/06/14 12:07:03;;;;;;;5.33;4.53;;;26.10;45.60;;;;;;5041171;28;20405;-82
2022/06/14 12:09:55;;;;;;;6.77;5.43;;;25.70;44.10;;;;;;5019781;28;20459;-84
2022/06/14 12:13:00;;;;;;;6.63;4.87;;;25.60;44.70;;;;;;5037160;28;20405;-80
2022/06/14 12:16:03;;;;;;;9.40;6.07;;;25.80;46.50;;;;;;5009051;28;20433;-83
2022/06/14 12:18:33;;;;;;;11.93;6.03;;;25.90;47.20;;;;;;5039955;28;20440;-82
2022/06/14 12:21:28;;;;;;;7.53;5.10;;;25.80;47.00;;;;;;5037840;28;20439;-83
2022/06/14 12:24:02;;;;;;;6.00;4.77;;;25.70;46.70;;;;;;5005253;28;20495;-80
2022/06/14 12:26:48;;;;;;;7.17;4.60;;;25.80;49.40;;;;;;5035620;28;20555;-80
2022/06/14 12:29:35;;;;;;;6.57;4.67;;;26.10;47.30;;;;;;5034026;28;20828;-82
2022/06/14 12:32:21;;;;;;;5.90;4.87;;;26.40;48.80;;;;;;5033629;28;20436;-83
2022/06/14 12:34:50;;;;;;;5.50;4.93;;;26.20;48.60;;;;;;5041183;28;20982;-83
2022/06/14 12:37:45;;;;;;;7.33;5.90;;;26.40;46.20;;;;;;5039536;28;20420;-85
2022/06/14 12:40:39;;;;;;;5.60;5.00;;;26.40;45.90;;;;;;5034876;28;20549;-81
2022/06/14 12:43:21;;;;;;;5.43;4.73;;;26.20;46.90;;;;;;5035223;28;20824;-82
2022/06/14 12:46:02;;;;;;;5.77;5.20;;;26.20;47.80;;;;;;5034626;28;20412;-82
2022/06/14 12:48:46;;;;;;;8.83;5.50;;;26.30;47.10;;;;;;5031665;28;20814;-81
2022/06/14 12:51:25;;;;;;;9.10;5.73;;;26.40;47.10;;;;;;5039664;28;20473;-82
2022/06/14 12:53:56;;;;;;;6.50;5.37;;;26.40;45.20;;;;;;5036343;28;20809;-82
2022/06/14 12:56:42;;;;;;;10.60;5.40;;;26.50;47.70;;;;;;5037532;28;20443;-81
2022/06/14 12:59:26;;;;;;;7.53;5.37;;;26.10;47.40;;;;;;5029430;28;20473;-80
2022/06/14 13:02:28;;;;;;;7.23;5.10;;;26.00;47.30;;;;;;5033397;28;20513;-84
2022/06/14 13:05:09;;;;;;;8.83;5.43;;;26.20;47.90;;;;;;5033130;28;20804;-81
2022/06/14 13:07:52;;;;;;;9.60;5.20;;;26.40;46.60;;;;;;5041225;28;20815;-82
2022/06/14 13:10:47;;;;;;;11.53;5.50;;;26.40;47.00;;;;;;5038728;28;20559;-82
2022/06/14 13:13:16;;;;;;;6.63;5.40;;;26.20;47.20;;;;;;5037112;28;21155;-81
2022/06/14 13:16:29;;;;;;;6.10;5.60;;;26.20;47.60;;;;;;5035456;28;20460;-81
2022/06/14 13:19:29;;;;;;;6.23;5.00;;;26.30;47.60;;;;;;5015393;28;20468;-82
2022/06/14 13:22:19;;;;;;;6.03;4.93;;;26.30;48.70;;;;;;5009188;28;20440;-83
2022/06/14 13:24:50;;;;;;;7.87;5.97;;;26.00;49.20;;;;;;5039523;28;20519;-82
2022/06/14 13:27:52;;;;;;;8.70;5.70;;;26.20;47.50;;;;;;5027394;28;20545;-84
2022/06/14 13:30:31;;;;;;;6.63;5.50;;;26.40;49.50;;;;;;5039185;23;20570;-83
2022/06/14 13:33:18;;;;;;;6.57;5.40;;;26.40;50.10;;;;;;5044149;28;20861;-82
2022/06/14 13:36:09;;;;;;;6.73;6.20;;;26.40;47.90;;;;;;5040598;28;20441;-82
2022/06/14 13:38:50;;;;;;;9.17;5.10;;;26.60;48.40;;;;;;5047017;28;20426;-82
2022/06/14 13:42:00;;;;;;;6.00;5.33;;;27.10;46.10;;;;;;5028937;28;21053;-82
2022/06/14 13:44:31;;;;;;;6.63;5.27;;;26.90;47.40;;;;;;5046468;28;20437;-82
2022/06/14 13:47:01;;;;;;;5.33;4.83;;;26.90;48.00;;;;;;5045383;28;20925;-82
2022/06/14 13:49:43;;;;;;;7.57;5.73;;;27.00;47.50;;;;;;5043693;28;20435;-82
2022/06/14 13:52:22;;;;;;;8.50;5.10;;;26.90;48.10;;;;;;5030149;28;20437;-82
2022/06/14 13:54:56;;;;;;;6.53;5.70;;;26.80;49.50;;;;;;5048098;28;20414;-82
2022/06/14 13:57:22;;;;;;;7.63;6.03;;;;;;;;;;5047386;28;20528;-82
2022/06/14 13:59:50;;;;;;;11.37;6.63;;;26.60;48.30;;;;;;5044513;28;20574;-82
2022/06/14 14:02:24;;;;;;;7.33;5.17;;;26.60;46.70;;;;;;5045912;28;20440;-82
2022/06/14 14:05:14;;;;;;;7.40;5.73;;;26.50;47.40;;;;;;5040707;28;20599;-82
2022/06/14 14:08:05;;;;;;;6.50;5.47;;;26.50;48.10;;;;;;5041081;28;20421;-82